sensor_id;sensor_type;location;lat;lon;timestamp;P1;durP1;ratioP1;P2;durP2;ratioP2
17648;SDS011;8943;51.110;-4.158;2023-04-12T00:00:37;9.27;;;2.13;;
17648;SDS011;8943;51.110;-4.158;2023-04-12T00:03:05;9.97;;;2.07;;
17648;SDS011;8943;51.110;-4.158;2023-04-12T00:05:35;15.90;;;2.27;;
17648;SDS011;8943;51.110;-4.158;2023-04-12T00:08:04;6.23;;;1.60;;
17648;SDS011;8943;51.110;-4.158;2023-04-12T00:10:32;13.53;;;3.10;;
17648;SDS011;8943;51.110;-4.158;2023-04-12T00:13:00;7.03;;;1.83;;
17648;SDS011;8943;51.110;-4.158;2023-04-12T00:15:27;17.10;;;3.10;;
17648;SDS011;8943;51.110;-4.158;2023-04-12T00:17:56;15.30;;;3.23;;
17648;SDS011;8943;51.110;-4.158;2023-04-12T00:20:24;8.33;;;2.27;;
17648;SDS011;8943;51.110;-4.158;2023-04-12T00:22:54;13.70;;;2.63;;
17648;SDS011;8943;51.110;-4.158;2023-04-12T00:25:23;22.27;;;2.73;;
17648;SDS011;8943;51.110;-4.158;2023-04-12T00:27:51;8.80;;;2.47;;
17648;SDS011;8943;51.110;-4.158;2023-04-12T00:30:19;3.30;;;2.03;;
17648;SDS011;8943;51.110;-4.158;2023-04-12T00:32:47;12.00;;;1.70;;
17648;SDS011;8943;51.110;-4.158;2023-04-12T00:35:15;12.97;;;2.77;;
17648;SDS011;8943;51.110;-4.158;2023-04-12T00:37:43;6.97;;;1.97;;
17648;SDS011;8943;51.110;-4.158;2023-04-12T00:40:13;6.43;;;1.43;;
17648;SDS011;8943;51.110;-4.158;2023-04-12T00:42:41;15.83;;;2.17;;
17648;SDS011;8943;51.110;-4.158;2023-04-12T00:45:09;12.57;;;2.00;;
17648;SDS011;8943;51.110;-4.158;2023-04-12T00:47:37;4.40;;;1.47;;
17648;SDS011;8943;51.110;-4.158;2023-04-12T00:50:08;9.83;;;1.70;;
17648;SDS011;8943;51.110;-4.158;2023-04-12T00:52:37;6.97;;;1.73;;
17648;SDS011;8943;51.110;-4.158;2023-04-12T00:55:07;7.27;;;2.57;;
17648;SDS011;8943;51.110;-4.158;2023-04-12T00:57:38;12.73;;;2.70;;
17648;SDS011;8943;51.110;-4.158;2023-04-12T01:00:07;15.00;;;2.83;;
17648;SDS011;8943;51.110;-4.158;2023-04-12T01:02:39;5.90;;;1.77;;
17648;SDS011;8943;51.110;-4.158;2023-04-12T01:05:13;7.53;;;2.20;;
17648;SDS011;8943;51.110;-4.158;2023-04-12T01:07:50;11.67;;;2.67;;
17648;SDS011;8943;51.110;-4.158;2023-04-12T01:10:25;12.63;;;2.20;;
17648;SDS011;8943;51.110;-4.158;2023-04-12T01:13:03;6.80;;;2.20;;
17648;SDS011;8943;51.110;-4.158;2023-04-12T01:15:40;10.20;;;2.53;;
17648;SDS011;8943;51.110;-4.158;2023-04-12T01:18:18;7.27;;;1.73;;
17648;SDS011;8943;51.110;-4.158;2023-04-12T01:20:50;11.90;;;1.93;;
17648;SDS011;8943;51.110;-4.158;2023-04-12T01:23:42;10.93;;;1.43;;
17648;SDS011;8943;51.110;-4.158;2023-04-12T01:26:26;13.53;;;2.00;;
17648;SDS011;8943;51.110;-4.158;2023-04-12T01:29:03;5.53;;;1.27;;
17648;SDS011;8943;51.110;-4.158;2023-04-12T01:31:38;14.80;;;2.40;;
17648;SDS011;8943;51.110;-4.158;2023-04-12T01:34:08;15.27;;;3.00;;
17648;SDS011;8943;51.110;-4.158;2023-04-12T01:36:38;9.13;;;2.10;;
17648;SDS011;8943;51.110;-4.158;2023-04-12T01:39:09;25.27;;;2.73;;
17648;SDS011;8943;51.110;-4.158;2023-04-12T01:41:37;19.43;;;3.80;;
17648;SDS011;8943;51.110;-4.158;2023-04-12T01:44:11;18.70;;;3.57;;
17648;SDS011;8943;51.110;-4.158;2023-04-12T01:46:39;23.03;;;3.00;;
17648;SDS011;8943;51.110;-4.158;2023-04-12T01:49:08;20.60;;;3.13;;
17648;SDS011;8943;51.110;-4.158;2023-04-12T01:51:40;5.07;;;1.70;;
17648;SDS011;8943;51.110;-4.158;2023-04-12T01:54:18;16.10;;;2.60;;
17648;SDS011;8943;51.110;-4.158;2023-04-12T01:56:49;14.30;;;2.30;;
17648;SDS011;8943;51.110;-4.158;2023-04-12T01:59:27;14.73;;;2.97;;
17648;SDS011;8943;51.110;-4.158;2023-04-12T02:01:58;21.90;;;3.90;;
17648;SDS011;8943;51.110;-4.158;2023-04-12T02:04:27;15.00;;;3.03;;
17648;SDS011;8943;51.110;-4.158;2023-04-12T02:06:56;14.20;;;2.30;;
17648;SDS011;8943;51.110;-4.158;2023-04-12T02:09:24;12.60;;;2.43;;
17648;SDS011;8943;51.110;-4.158;2023-04-12T02:11:52;10.67;;;2.10;;
17648;SDS011;8943;51.110;-4.158;2023-04-12T02:14:21;15.83;;;2.70;;
17648;SDS011;8943;51.110;-4.158;2023-04-12T02:16:51;16.07;;;2.77;;
17648;SDS011;8943;51.110;-4.158;2023-04-12T02:19:20;10.73;;;1.77;;
17648;SDS011;8943;51.110;-4.158;2023-04-12T02:21:48;13.77;;;2.27;;
17648;SDS011;8943;51.110;-4.158;2023-04-12T02:24:17;14.70;;;3.03;;
17648;SDS011;8943;51.110;-4.158;2023-04-12T02:26:46;9.73;;;2.83;;
17648;SDS011;8943;51.110;-4.158;2023-04-12T02:29:15;8.80;;;1.80;;
17648;SDS011;8943;51.110;-4.158;2023-04-12T02:31:43;9.10;;;1.30;;
17648;SDS011;8943;51.110;-4.158;2023-04-12T02:34:13;9.27;;;1.57;;
17648;SDS011;8943;51.110;-4.158;2023-04-12T02:36:45;7.13;;;1.73;;
17648;SDS011;8943;51.110;-4.158;2023-04-12T02:39:13;9.77;;;1.33;;
17648;SDS011;8943;51.110;-4.158;2023-04-12T02:41:44;5.57;;;1.60;;
17648;SDS011;8943;51.110;-4.158;2023-04-12T02:44:12;11.43;;;2.13;;
17648;SDS011;8943;51.110;-4.158;2023-04-12T02:46:40;16.77;;;2.70;;
17648;SDS011;8943;51.110;-4.158;2023-04-12T02:49:08;6.33;;;1.73;;
17648;SDS011;8943;51.110;-4.158;2023-04-12T02:51:38;17.97;;;3.77;;
17648;SDS011;8943;51.110;-4.158;2023-04-12T02:54:07;18.67;;;3.20;;
17648;SDS011;8943;51.110;-4.158;2023-04-12T02:56:35;16.87;;;2.97;;
17648;SDS011;8943;51.110;-4.158;2023-04-12T02:59:03;16.37;;;2.70;;
17648;SDS011;8943;51.110;-4.158;2023-04-12T03:01:32;12.60;;;2.17;;
17648;SDS011;8943;51.110;-4.158;2023-04-12T03:04:00;12.37;;;2.77;;
17648;SDS011;8943;51.110;-4.158;2023-04-12T03:06:28;7.50;;;2.13;;
17648;SDS011;8943;51.110;-4.158;2023-04-12T03:08:58;11.93;;;2.27;;
17648;SDS011;8943;51.110;-4.158;2023-04-12T03:11:26;15.10;;;2.37;;
17648;SDS011;8943;51.110;-4.158;2023-04-12T03:13:54;16.40;;;2.70;;
17648;SDS011;8943;51.110;-4.158;2023-04-12T03:16:24;8.27;;;2.30;;
17648;SDS011;8943;51.110;-4.158;2023-04-12T03:18:55;3.70;;;1.27;;
17648;SDS011;8943;51.110;-4.158;2023-04-12T03:21:24;5.67;;;1.13;;
17648;SDS011;8943;51.110;-4.158;2023-04-12T03:23:53;10.30;;;1.60;;
17648;SDS011;8943;51.110;-4.158;2023-04-12T03:26:23;13.87;;;1.80;;
17648;SDS011;8943;51.110;-4.158;2023-04-12T03:28:53;7.83;;;2.43;;
17648;SDS011;8943;51.110;-4.158;2023-04-12T03:31:22;13.47;;;2.27;;
17648;SDS011;8943;51.110;-4.158;2023-04-12T03:33:50;10.33;;;2.00;;
17648;SDS011;8943;51.110;-4.158;2023-04-12T03:36:18;16.33;;;2.13;;
17648;SDS011;8943;51.110;-4.158;2023-04-12T03:38:47;5.23;;;1.47;;
17648;SDS011;8943;51.110;-4.158;2023-04-12T03:41:14;12.60;;;1.80;;
17648;SDS011;8943;51.110;-4.158;2023-04-12T03:43:44;10.67;;;2.13;;
17648;SDS011;8943;51.110;-4.158;2023-04-12T03:46:12;5.40;;;1.70;;
17648;SDS011;8943;51.110;-4.158;2023-04-12T03:48:40;7.33;;;1.43;;
17648;SDS011;8943;51.110;-4.158;2023-04-12T03:51:08;9.17;;;1.93;;
17648;SDS011;8943;51.110;-4.158;2023-04-12T03:53:37;10.90;;;2.50;;
17648;SDS011;8943;51.110;-4.158;2023-04-12T03:56:06;16.77;;;2.30;;
17648;SDS011;8943;51.110;-4.158;2023-04-12T03:58:34;11.50;;;2.03;;
17648;SDS011;8943;51.110;-4.158;2023-04-12T04:01:04;9.10;;;1.53;;
17648;SDS011;8943;51.110;-4.158;2023-04-12T04:03:32;5.37;;;1.30;;
17648;SDS011;8943;51.110;-4.158;2023-04-12T04:06:01;13.20;;;1.50;;
17648;SDS011;8943;51.110;-4.158;2023-04-12T04:08:29;7.50;;;1.30;;
17648;SDS011;8943;51.110;-4.158;2023-04-12T04:10:58;9.77;;;1.83;;
17648;SDS011;8943;51.110;-4.158;2023-04-12T04:13:27;6.30;;;1.33;;
17648;SDS011;8943;51.110;-4.158;2023-04-12T04:15:58;9.13;;;1.23;;
17648;SDS011;8943;51.110;-4.158;2023-04-12T04:18:28;6.87;;;1.70;;
17648;SDS011;8943;51.110;-4.158;2023-04-12T04:20:56;16.10;;;2.57;;
17648;SDS011;8943;51.110;-4.158;2023-04-12T04:23:24;8.57;;;1.87;;
17648;SDS011;8943;51.110;-4.158;2023-04-12T04:25:54;7.07;;;1.53;;
17648;SDS011;8943;51.110;-4.158;2023-04-12T04:28:22;5.80;;;1.90;;
17648;SDS011;8943;51.110;-4.158;2023-04-12T04:30:50;7.67;;;1.53;;
17648;SDS011;8943;51.110;-4.158;2023-04-12T04:33:21;8.30;;;1.67;;
17648;SDS011;8943;51.110;-4.158;2023-04-12T04:35:51;8.87;;;1.90;;
17648;SDS011;8943;51.110;-4.158;2023-04-12T04:38:22;12.27;;;2.60;;
17648;SDS011;8943;51.110;-4.158;2023-04-12T04:40:51;18.03;;;2.50;;
17648;SDS011;8943;51.110;-4.158;2023-04-12T04:43:20;8.17;;;2.30;;
17648;SDS011;8943;51.110;-4.158;2023-04-12T04:45:50;5.87;;;0.90;;
17648;SDS011;8943;51.110;-4.158;2023-04-12T04:48:20;12.37;;;2.00;;
17648;SDS011;8943;51.110;-4.158;2023-04-12T04:50:48;7.73;;;1.83;;
17648;SDS011;8943;51.110;-4.158;2023-04-12T04:53:18;12.90;;;2.00;;
17648;SDS011;8943;51.110;-4.158;2023-04-12T04:55:48;14.47;;;2.83;;
17648;SDS011;8943;51.110;-4.158;2023-04-12T04:58:24;7.50;;;1.40;;
17648;SDS011;8943;51.110;-4.158;2023-04-12T05:00:54;10.93;;;1.13;;
17648;SDS011;8943;51.110;-4.158;2023-04-12T05:03:23;4.93;;;1.07;;
17648;SDS011;8943;51.110;-4.158;2023-04-12T05:05:55;13.67;;;2.17;;
17648;SDS011;8943;51.110;-4.158;2023-04-12T05:08:25;12.00;;;1.97;;
17648;SDS011;8943;51.110;-4.158;2023-04-12T05:10:54;14.27;;;2.33;;
17648;SDS011;8943;51.110;-4.158;2023-04-12T05:13:22;9.23;;;1.70;;
17648;SDS011;8943;51.110;-4.158;2023-04-12T05:15:51;0.00;;;0.00;;
17648;SDS011;8943;51.110;-4.158;2023-04-12T05:18:19;0.00;;;0.00;;
17648;SDS011;8943;51.110;-4.158;2023-04-12T05:20:47;0.00;;;0.00;;
17648;SDS011;8943;51.110;-4.158;2023-04-12T05:23:14;0.00;;;0.00;;
17648;SDS011;8943;51.110;-4.158;2023-04-12T05:25:45;0.00;;;0.00;;
17648;SDS011;8943;51.110;-4.158;2023-04-12T05:28:15;0.00;;;0.00;;
17648;SDS011;8943;51.110;-4.158;2023-04-12T05:30:43;0.00;;;0.00;;
17648;SDS011;8943;51.110;-4.158;2023-04-12T05:33:12;0.00;;;0.00;;
17648;SDS011;8943;51.110;-4.158;2023-04-12T05:35:41;0.00;;;0.00;;
17648;SDS011;8943;51.110;-4.158;2023-04-12T05:38:09;4.63;;;0.73;;
17648;SDS011;8943;51.110;-4.158;2023-04-12T05:40:37;4.23;;;1.60;;
17648;SDS011;8943;51.110;-4.158;2023-04-12T05:43:06;5.17;;;1.03;;
17648;SDS011;8943;51.110;-4.158;2023-04-12T05:45:37;8.30;;;1.53;;
17648;SDS011;8943;51.110;-4.158;2023-04-12T05:48:05;4.97;;;0.93;;
17648;SDS011;8943;51.110;-4.158;2023-04-12T05:50:34;3.53;;;1.43;;
17648;SDS011;8943;51.110;-4.158;2023-04-12T05:53:01;2.13;;;1.00;;
17648;SDS011;8943;51.110;-4.158;2023-04-12T05:55:29;4.47;;;1.23;;
17648;SDS011;8943;51.110;-4.158;2023-04-12T05:57:58;3.13;;;0.77;;
17648;SDS011;8943;51.110;-4.158;2023-04-12T06:00:28;5.43;;;0.83;;
17648;SDS011;8943;51.110;-4.158;2023-04-12T06:02:56;5.27;;;1.47;;
17648;SDS011;8943;51.110;-4.158;2023-04-12T06:05:24;7.37;;;1.67;;
17648;SDS011;8943;51.110;-4.158;2023-04-12T06:07:52;7.40;;;1.67;;
17648;SDS011;8943;51.110;-4.158;2023-04-12T06:10:22;14.53;;;2.50;;
17648;SDS011;8943;51.110;-4.158;2023-04-12T06:12:50;19.97;;;2.60;;
17648;SDS011;8943;51.110;-4.158;2023-04-12T06:15:18;11.70;;;1.73;;
17648;SDS011;8943;51.110;-4.158;2023-04-12T06:17:47;9.80;;;1.57;;
17648;SDS011;8943;51.110;-4.158;2023-04-12T06:20:17;7.43;;;1.67;;
17648;SDS011;8943;51.110;-4.158;2023-04-12T06:22:45;13.50;;;2.27;;
17648;SDS011;8943;51.110;-4.158;2023-04-12T06:25:13;14.13;;;2.67;;
17648;SDS011;8943;51.110;-4.158;2023-04-12T06:27:41;13.97;;;2.47;;
17648;SDS011;8943;51.110;-4.158;2023-04-12T06:30:09;17.63;;;2.33;;
17648;SDS011;8943;51.110;-4.158;2023-04-12T06:32:38;12.67;;;2.80;;
17648;SDS011;8943;51.110;-4.158;2023-04-12T06:35:08;17.97;;;2.63;;
17648;SDS011;8943;51.110;-4.158;2023-04-12T06:37:36;12.10;;;2.03;;
17648;SDS011;8943;51.110;-4.158;2023-04-12T06:40:04;16.63;;;2.80;;
17648;SDS011;8943;51.110;-4.158;2023-04-12T06:42:33;14.67;;;3.33;;
17648;SDS011;8943;51.110;-4.158;2023-04-12T06:45:01;13.77;;;2.63;;
17648;SDS011;8943;51.110;-4.158;2023-04-12T06:47:30;26.57;;;4.00;;
17648;SDS011;8943;51.110;-4.158;2023-04-12T06:49:59;22.23;;;3.33;;
17648;SDS011;8943;51.110;-4.158;2023-04-12T06:52:29;12.27;;;2.47;;
17648;SDS011;8943;51.110;-4.158;2023-04-12T06:54:57;15.53;;;2.77;;
17648;SDS011;8943;51.110;-4.158;2023-04-12T06:57:25;11.80;;;2.30;;
17648;SDS011;8943;51.110;-4.158;2023-04-12T06:59:53;14.83;;;2.77;;
17648;SDS011;8943;51.110;-4.158;2023-04-12T07:02:20;14.63;;;2.53;;
17648;SDS011;8943;51.110;-4.158;2023-04-12T07:04:50;12.37;;;2.13;;
17648;SDS011;8943;51.110;-4.158;2023-04-12T07:07:18;12.77;;;2.30;;
17648;SDS011;8943;51.110;-4.158;2023-04-12T07:09:48;11.23;;;2.20;;
17648;SDS011;8943;51.110;-4.158;2023-04-12T07:12:17;7.47;;;1.70;;
17648;SDS011;8943;51.110;-4.158;2023-04-12T07:14:45;13.33;;;3.20;;
17648;SDS011;8943;51.110;-4.158;2023-04-12T07:17:13;19.07;;;2.83;;
17648;SDS011;8943;51.110;-4.158;2023-04-12T07:19:41;11.97;;;2.87;;
17648;SDS011;8943;51.110;-4.158;2023-04-12T07:22:09;9.27;;;2.40;;
17648;SDS011;8943;51.110;-4.158;2023-04-12T07:24:39;12.90;;;2.20;;
17648;SDS011;8943;51.110;-4.158;2023-04-12T07:27:08;12.70;;;2.93;;
17648;SDS011;8943;51.110;-4.158;2023-04-12T07:29:37;8.40;;;2.50;;
17648;SDS011;8943;51.110;-4.158;2023-04-12T07:32:05;15.90;;;2.97;;
17648;SDS011;8943;51.110;-4.158;2023-04-12T07:34:34;14.67;;;3.10;;
17648;SDS011;8943;51.110;-4.158;2023-04-12T07:37:03;16.73;;;2.93;;
17648;SDS011;8943;51.110;-4.158;2023-04-12T07:39:31;11.50;;;2.43;;
17648;SDS011;8943;51.110;-4.158;2023-04-12T07:42:00;6.93;;;2.17;;
17648;SDS011;8943;51.110;-4.158;2023-04-12T07:44:29;16.37;;;2.70;;
17648;SDS011;8943;51.110;-4.158;2023-04-12T07:47:02;12.87;;;2.33;;
17648;SDS011;8943;51.110;-4.158;2023-04-12T07:49:30;15.43;;;3.33;;
17648;SDS011;8943;51.110;-4.158;2023-04-12T07:51:58;12.57;;;2.93;;
17648;SDS011;8943;51.110;-4.158;2023-04-12T07:54:26;16.60;;;3.87;;
17648;SDS011;8943;51.110;-4.158;2023-04-12T07:56:57;16.60;;;2.73;;
17648;SDS011;8943;51.110;-4.158;2023-04-12T07:59:26;19.43;;;3.27;;
17648;SDS011;8943;51.110;-4.158;2023-04-12T08:01:56;22.17;;;3.83;;
17648;SDS011;8943;51.110;-4.158;2023-04-12T08:04:24;23.63;;;4.33;;
17648;SDS011;8943;51.110;-4.158;2023-04-12T08:06:53;17.90;;;4.30;;
17648;SDS011;8943;51.110;-4.158;2023-04-12T08:09:21;18.30;;;3.97;;
17648;SDS011;8943;51.110;-4.158;2023-04-12T08:11:50;16.23;;;4.20;;
17648;SDS011;8943;51.110;-4.158;2023-04-12T08:14:18;13.83;;;4.00;;
17648;SDS011;8943;51.110;-4.158;2023-04-12T08:16:46;14.13;;;4.20;;
17648;SDS011;8943;51.110;-4.158;2023-04-12T08:19:16;16.27;;;3.40;;
17648;SDS011;8943;51.110;-4.158;2023-04-12T08:21:44;17.23;;;3.57;;
17648;SDS011;8943;51.110;-4.158;2023-04-12T08:24:13;15.87;;;3.67;;
17648;SDS011;8943;51.110;-4.158;2023-04-12T08:26:41;15.73;;;3.67;;
17648;SDS011;8943;51.110;-4.158;2023-04-12T08:29:09;20.37;;;4.33;;
17648;SDS011;8943;51.110;-4.158;2023-04-12T08:31:36;21.00;;;4.43;;
17648;SDS011;8943;51.110;-4.158;2023-04-12T08:34:05;21.27;;;4.73;;
17648;SDS011;8943;51.110;-4.158;2023-04-12T08:36:35;16.80;;;4.70;;
17648;SDS011;8943;51.110;-4.158;2023-04-12T08:39:03;35.03;;;6.27;;
17648;SDS011;8943;51.110;-4.158;2023-04-12T08:41:31;18.53;;;4.20;;
17648;SDS011;8943;51.110;-4.158;2023-04-12T08:44:03;22.17;;;4.50;;
17648;SDS011;8943;51.110;-4.158;2023-04-12T08:46:31;19.80;;;4.67;;
17648;SDS011;8943;51.110;-4.158;2023-04-12T08:49:02;19.90;;;4.30;;
17648;SDS011;8943;51.110;-4.158;2023-04-12T08:51:30;24.97;;;5.23;;
17648;SDS011;8943;51.110;-4.158;2023-04-12T08:54:02;12.73;;;3.30;;
17648;SDS011;8943;51.110;-4.158;2023-04-12T08:56:31;23.37;;;5.07;;
17648;SDS011;8943;51.110;-4.158;2023-04-12T08:58:59;8.03;;;2.20;;
17648;SDS011;8943;51.110;-4.158;2023-04-12T09:01:28;10.70;;;2.73;;
17648;SDS011;8943;51.110;-4.158;2023-04-12T09:03:56;15.20;;;3.80;;
17648;SDS011;8943;51.110;-4.158;2023-04-12T09:06:25;19.47;;;3.97;;
17648;SDS011;8943;51.110;-4.158;2023-04-12T09:08:53;16.97;;;3.40;;
17648;SDS011;8943;51.110;-4.158;2023-04-12T09:11:25;18.77;;;4.50;;
17648;SDS011;8943;51.110;-4.158;2023-04-12T09:13:55;16.83;;;3.37;;
17648;SDS011;8943;51.110;-4.158;2023-04-12T09:16:34;15.97;;;4.30;;
17648;SDS011;8943;51.110;-4.158;2023-04-12T09:19:04;18.57;;;4.07;;
17648;SDS011;8943;51.110;-4.158;2023-04-12T09:21:32;26.27;;;5.17;;
17648;SDS011;8943;51.110;-4.158;2023-04-12T09:24:02;22.07;;;4.50;;
17648;SDS011;8943;51.110;-4.158;2023-04-12T09:26:40;23.27;;;5.60;;
17648;SDS011;8943;51.110;-4.158;2023-04-12T09:29:20;18.70;;;4.53;;
17648;SDS011;8943;51.110;-4.158;2023-04-12T09:31:54;24.70;;;5.73;;
17648;SDS011;8943;51.110;-4.158;2023-04-12T09:34:23;30.00;;;5.87;;
17648;SDS011;8943;51.110;-4.158;2023-04-12T09:36:53;26.07;;;5.90;;
17648;SDS011;8943;51.110;-4.158;2023-04-12T09:39:29;23.27;;;5.30;;
17648;SDS011;8943;51.110;-4.158;2023-04-12T09:42:06;23.97;;;5.30;;
17648;SDS011;8943;51.110;-4.158;2023-04-12T09:44:50;28.07;;;5.43;;
17648;SDS011;8943;51.110;-4.158;2023-04-12T09:47:19;21.60;;;4.73;;
17648;SDS011;8943;51.110;-4.158;2023-04-12T09:49:48;16.77;;;4.50;;
17648;SDS011;8943;51.110;-4.158;2023-04-12T09:52:16;8.73;;;2.50;;
17648;SDS011;8943;51.110;-4.158;2023-04-12T09:54:46;10.50;;;2.20;;
17648;SDS011;8943;51.110;-4.158;2023-04-12T09:57:16;11.93;;;2.40;;
17648;SDS011;8943;51.110;-4.158;2023-04-12T09:59:46;11.50;;;2.97;;
17648;SDS011;8943;51.110;-4.158;2023-04-12T10:02:17;8.70;;;2.73;;
17648;SDS011;8943;51.110;-4.158;2023-04-12T10:04:47;9.53;;;2.50;;
17648;SDS011;8943;51.110;-4.158;2023-04-12T10:07:15;13.80;;;2.93;;
17648;SDS011;8943;51.110;-4.158;2023-04-12T10:09:44;22.43;;;3.90;;
17648;SDS011;8943;51.110;-4.158;2023-04-12T10:12:13;16.70;;;4.53;;
17648;SDS011;8943;51.110;-4.158;2023-04-12T10:14:43;23.87;;;4.73;;
17648;SDS011;8943;51.110;-4.158;2023-04-12T10:17:13;24.60;;;5.00;;
17648;SDS011;8943;51.110;-4.158;2023-04-12T10:19:42;24.70;;;5.40;;
17648;SDS011;8943;51.110;-4.158;2023-04-12T10:22:10;22.00;;;3.70;;
17648;SDS011;8943;51.110;-4.158;2023-04-12T10:24:40;20.80;;;3.57;;
17648;SDS011;8943;51.110;-4.158;2023-04-12T10:27:09;16.20;;;3.90;;
17648;SDS011;8943;51.110;-4.158;2023-04-12T10:29:42;17.90;;;3.43;;
17648;SDS011;8943;51.110;-4.158;2023-04-12T10:32:19;20.80;;;4.80;;
17648;SDS011;8943;51.110;-4.158;2023-04-12T10:34:49;24.40;;;4.77;;
17648;SDS011;8943;51.110;-4.158;2023-04-12T10:37:18;24.40;;;4.63;;
17648;SDS011;8943;51.110;-4.158;2023-04-12T10:39:50;15.30;;;3.70;;
17648;SDS011;8943;51.110;-4.158;2023-04-12T10:42:21;22.33;;;4.10;;
17648;SDS011;8943;51.110;-4.158;2023-04-12T10:44:53;14.20;;;3.37;;
17648;SDS011;8943;51.110;-4.158;2023-04-12T10:50:27;17.07;;;4.13;;
17648;SDS011;8943;51.110;-4.158;2023-04-12T10:55:51;21.40;;;4.73;;
17648;SDS011;8943;51.110;-4.158;2023-04-12T11:01:24;13.40;;;4.17;;
17648;SDS011;8943;51.110;-4.158;2023-04-12T11:04:06;24.10;;;6.43;;
17648;SDS011;8943;51.110;-4.158;2023-04-12T11:06:46;17.27;;;4.03;;
17648;SDS011;8943;51.110;-4.158;2023-04-12T11:09:25;12.93;;;3.00;;
17648;SDS011;8943;51.110;-4.158;2023-04-12T11:11:55;15.73;;;4.60;;
17648;SDS011;8943;51.110;-4.158;2023-04-12T11:14:26;14.97;;;3.40;;
17648;SDS011;8943;51.110;-4.158;2023-04-12T11:19:55;11.73;;;3.77;;
17648;SDS011;8943;51.110;-4.158;2023-04-12T11:22:27;6.20;;;2.13;;
17648;SDS011;8943;51.110;-4.158;2023-04-12T11:24:57;17.10;;;3.27;;
17648;SDS011;8943;51.110;-4.158;2023-04-12T11:27:26;20.43;;;4.53;;
17648;SDS011;8943;51.110;-4.158;2023-04-12T11:29:55;22.37;;;4.00;;
17648;SDS011;8943;51.110;-4.158;2023-04-12T11:32:26;25.07;;;4.80;;
17648;SDS011;8943;51.110;-4.158;2023-04-12T11:34:56;19.83;;;5.67;;
17648;SDS011;8943;51.110;-4.158;2023-04-12T11:42:04;21.40;;;5.33;;
17648;SDS011;8943;51.110;-4.158;2023-04-12T11:44:36;23.27;;;5.07;;
17648;SDS011;8943;51.110;-4.158;2023-04-12T11:47:23;24.63;;;6.37;;
17648;SDS011;8943;51.110;-4.158;2023-04-12T11:49:52;21.60;;;5.73;;
17648;SDS011;8943;51.110;-4.158;2023-04-12T11:52:27;23.93;;;5.77;;
17648;SDS011;8943;51.110;-4.158;2023-04-12T11:54:57;27.33;;;5.00;;
17648;SDS011;8943;51.110;-4.158;2023-04-12T11:57:28;26.67;;;5.50;;
17648;SDS011;8943;51.110;-4.158;2023-04-12T11:59:56;18.33;;;4.67;;
17648;SDS011;8943;51.110;-4.158;2023-04-12T12:02:25;22.33;;;4.93;;
17648;SDS011;8943;51.110;-4.158;2023-04-12T12:05:00;25.13;;;5.13;;
17648;SDS011;8943;51.110;-4.158;2023-04-12T12:07:28;16.23;;;3.40;;
17648;SDS011;8943;51.110;-4.158;2023-04-12T12:09:57;19.13;;;4.70;;
17648;SDS011;8943;51.110;-4.158;2023-04-12T12:12:25;24.37;;;5.90;;
17648;SDS011;8943;51.110;-4.158;2023-04-12T12:14:57;34.50;;;6.23;;
17648;SDS011;8943;51.110;-4.158;2023-04-12T12:17:26;19.63;;;5.00;;
17648;SDS011;8943;51.110;-4.158;2023-04-12T12:19:55;27.27;;;6.57;;
17648;SDS011;8943;51.110;-4.158;2023-04-12T12:22:24;23.20;;;5.27;;
17648;SDS011;8943;51.110;-4.158;2023-04-12T12:24:54;15.17;;;3.77;;
17648;SDS011;8943;51.110;-4.158;2023-04-12T12:27:24;34.47;;;7.70;;
17648;SDS011;8943;51.110;-4.158;2023-04-12T12:30:02;25.60;;;5.57;;
17648;SDS011;8943;51.110;-4.158;2023-04-12T12:32:31;21.17;;;5.13;;
17648;SDS011;8943;51.110;-4.158;2023-04-12T12:35:01;14.57;;;3.50;;
17648;SDS011;8943;51.110;-4.158;2023-04-12T12:37:34;20.97;;;4.17;;
17648;SDS011;8943;51.110;-4.158;2023-04-12T12:40:04;27.03;;;4.10;;
17648;SDS011;8943;51.110;-4.158;2023-04-12T12:42:45;28.27;;;5.17;;
17648;SDS011;8943;51.110;-4.158;2023-04-12T12:45:17;26.20;;;6.33;;
17648;SDS011;8943;51.110;-4.158;2023-04-12T12:47:47;27.40;;;4.97;;
17648;SDS011;8943;51.110;-4.158;2023-04-12T12:50:17;21.37;;;5.83;;
17648;SDS011;8943;51.110;-4.158;2023-04-12T12:52:50;31.30;;;6.53;;
17648;SDS011;8943;51.110;-4.158;2023-04-12T12:55:19;27.27;;;6.10;;
17648;SDS011;8943;51.110;-4.158;2023-04-12T12:57:48;24.43;;;5.40;;
17648;SDS011;8943;51.110;-4.158;2023-04-12T13:00:34;22.30;;;4.30;;
17648;SDS011;8943;51.110;-4.158;2023-04-12T13:03:02;38.90;;;6.47;;
17648;SDS011;8943;51.110;-4.158;2023-04-12T13:05:31;29.30;;;7.17;;
17648;SDS011;8943;51.110;-4.158;2023-04-12T13:07:59;34.17;;;6.93;;
17648;SDS011;8943;51.110;-4.158;2023-04-12T13:10:28;18.77;;;3.90;;
17648;SDS011;8943;51.110;-4.158;2023-04-12T13:12:56;24.77;;;5.53;;
17648;SDS011;8943;51.110;-4.158;2023-04-12T13:15:24;14.20;;;3.50;;
17648;SDS011;8943;51.110;-4.158;2023-04-12T13:17:53;23.87;;;4.40;;
17648;SDS011;8943;51.110;-4.158;2023-04-12T13:20:21;20.97;;;4.67;;
17648;SDS011;8943;51.110;-4.158;2023-04-12T13:22:50;26.03;;;4.73;;
17648;SDS011;8943;51.110;-4.158;2023-04-12T13:25:18;17.93;;;4.23;;
17648;SDS011;8943;51.110;-4.158;2023-04-12T13:27:47;28.93;;;4.90;;
17648;SDS011;8943;51.110;-4.158;2023-04-12T13:30:16;17.37;;;4.10;;
17648;SDS011;8943;51.110;-4.158;2023-04-12T13:32:44;22.70;;;5.63;;
17648;SDS011;8943;51.110;-4.158;2023-04-12T13:35:14;15.87;;;4.10;;
17648;SDS011;8943;51.110;-4.158;2023-04-12T13:37:42;12.50;;;3.37;;
17648;SDS011;8943;51.110;-4.158;2023-04-12T13:40:10;18.50;;;4.13;;
17648;SDS011;8943;51.110;-4.158;2023-04-12T13:42:38;17.83;;;3.83;;
17648;SDS011;8943;51.110;-4.158;2023-04-12T13:45:07;16.60;;;2.83;;
17648;SDS011;8943;51.110;-4.158;2023-04-12T13:47:36;13.23;;;3.23;;
17648;SDS011;8943;51.110;-4.158;2023-04-12T13:50:05;11.30;;;2.77;;
17648;SDS011;8943;51.110;-4.158;2023-04-12T13:52:36;19.03;;;4.50;;
17648;SDS011;8943;51.110;-4.158;2023-04-12T13:55:04;18.27;;;4.57;;
17648;SDS011;8943;51.110;-4.158;2023-04-12T13:57:33;15.80;;;3.00;;
17648;SDS011;8943;51.110;-4.158;2023-04-12T14:00:01;17.97;;;3.30;;
17648;SDS011;8943;51.110;-4.158;2023-04-12T14:02:30;18.43;;;3.93;;
17648;SDS011;8943;51.110;-4.158;2023-04-12T14:04:59;13.70;;;2.43;;
17648;SDS011;8943;51.110;-4.158;2023-04-12T14:07:27;8.23;;;2.50;;
17648;SDS011;8943;51.110;-4.158;2023-04-12T14:09:57;7.90;;;1.87;;
17648;SDS011;8943;51.110;-4.158;2023-04-12T14:12:25;8.70;;;2.50;;
17648;SDS011;8943;51.110;-4.158;2023-04-12T14:14:53;11.73;;;2.90;;
17648;SDS011;8943;51.110;-4.158;2023-04-12T14:17:21;7.90;;;1.33;;
17648;SDS011;8943;51.110;-4.158;2023-04-12T14:19:50;8.80;;;1.90;;
17648;SDS011;8943;51.110;-4.158;2023-04-12T14:22:18;6.03;;;1.57;;
17648;SDS011;8943;51.110;-4.158;2023-04-12T14:24:46;6.27;;;1.57;;
17648;SDS011;8943;51.110;-4.158;2023-04-12T14:27:15;8.80;;;1.77;;
17648;SDS011;8943;51.110;-4.158;2023-04-12T14:29:43;9.63;;;2.03;;
17648;SDS011;8943;51.110;-4.158;2023-04-12T14:32:11;8.87;;;2.07;;
17648;SDS011;8943;51.110;-4.158;2023-04-12T14:34:39;6.07;;;1.43;;
17648;SDS011;8943;51.110;-4.158;2023-04-12T14:37:08;3.43;;;1.57;;
17648;SDS011;8943;51.110;-4.158;2023-04-12T14:39:36;10.67;;;2.33;;
17648;SDS011;8943;51.110;-4.158;2023-04-12T14:42:04;5.77;;;1.40;;
17648;SDS011;8943;51.110;-4.158;2023-04-12T14:44:34;5.70;;;1.33;;
17648;SDS011;8943;51.110;-4.158;2023-04-12T14:47:02;8.20;;;2.27;;
17648;SDS011;8943;51.110;-4.158;2023-04-12T14:49:30;10.17;;;2.33;;
17648;SDS011;8943;51.110;-4.158;2023-04-12T14:51:59;13.57;;;3.13;;
17648;SDS011;8943;51.110;-4.158;2023-04-12T14:54:27;15.50;;;2.90;;
17648;SDS011;8943;51.110;-4.158;2023-04-12T14:56:55;21.03;;;3.07;;
17648;SDS011;8943;51.110;-4.158;2023-04-12T14:59:23;11.93;;;2.50;;
17648;SDS011;8943;51.110;-4.158;2023-04-12T15:01:54;49.47;;;3.67;;
17648;SDS011;8943;51.110;-4.158;2023-04-12T15:04:24;6.53;;;1.80;;
17648;SDS011;8943;51.110;-4.158;2023-04-12T15:06:53;10.07;;;1.53;;
17648;SDS011;8943;51.110;-4.158;2023-04-12T15:09:21;11.57;;;2.00;;